createdAt,value
2019-01-17T00:01:00.825Z,18.50
2019-01-17T00:04:11.697Z,17.48
2019-01-17T00:07:09.140Z,18.75
2019-01-17T00:10:05.391Z,19.15
2019-01-17T00:12:49.311Z,15.00
2019-01-17T00:15:28.325Z,16.20
2019-01-17T00:18:14.127Z,20.40
2019-01-17T00:21:12.017Z,20.33
2019-01-17T00:24:21.058Z,17.23
2019-01-17T00:27:00.896Z,14.57
2019-01-17T00:29:55.698Z,20.43
2019-01-17T00:33:00.550Z,15.95
2019-01-17T00:35:45.674Z,13.53
2019-01-17T00:38:35.485Z,13.73
2019-01-17T00:41:20.882Z,14.70
2019-01-17T00:44:08.968Z,16.50
2019-01-17T00:46:49.414Z,10.87
2019-01-17T00:49:33.515Z,12.17
2019-01-17T00:52:21.899Z,14.03
2019-01-17T00:55:00.619Z,10.97
2019-01-17T00:57:43.619Z,11.63
2019-01-17T01:00:39.529Z,12.43
2019-01-17T01:03:20.916Z,11.00
2019-01-17T01:06:01.378Z,12.03
2019-01-17T01:08:52.158Z,11.52
2019-01-17T01:11:39.920Z,9.30
2019-01-17T01:14:19.089Z,10.47
2019-01-17T01:17:20.805Z,10.10
2019-01-17T01:20:29.834Z,10.52
2019-01-17T01:23:20.026Z,12.30
2019-01-17T01:25:59.444Z,10.10
2019-01-17T01:28:56.722Z,11.07
2019-01-17T01:31:35.245Z,9.90
2019-01-17T01:34:21.740Z,11.10
2019-01-17T01:37:15.618Z,13.27
2019-01-17T01:40:02.942Z,11.33
2019-01-17T01:42:58.044Z,11.17
2019-01-17T01:45:49.429Z,11.00
2019-01-17T01:48:38.546Z,11.23
2019-01-17T01:51:31.486Z,10.10
2019-01-17T01:54:22.045Z,10.70
2019-01-17T01:56:57.195Z,11.20
2019-01-17T01:59:32.565Z,10.20
2019-01-17T02:02:06.481Z,10.17
2019-01-17T02:04:40.354Z,10.38
2019-01-17T02:07:13.915Z,10.97
2019-01-17T02:09:48.163Z,10.53
2019-01-17T02:12:21.932Z,11.00
2019-01-17T02:14:55.447Z,10.47
2019-01-17T02:17:29.024Z,11.27
2019-01-17T02:20:04.667Z,11.50
2019-01-17T02:22:38.016Z,13.07
2019-01-17T02:25:11.971Z,12.47
2019-01-17T02:27:44.776Z,11.87
2019-01-17T02:30:17.335Z,12.37
2019-01-17T02:32:50.157Z,12.93
2019-01-17T02:35:23.767Z,12.40
2019-01-17T02:37:57.899Z,11.93
2019-01-17T02:40:30.680Z,12.47
2019-01-17T02:43:04.424Z,13.60
2019-01-17T02:45:37.776Z,13.30
2019-01-17T02:48:14.506Z,13.40
2019-01-17T02:50:47.416Z,11.83
2019-01-17T02:53:23.205Z,12.43
2019-01-17T02:55:56.058Z,12.03
2019-01-17T02:58:30.280Z,12.10
2019-01-17T03:01:04.205Z,12.00
2019-01-17T03:03:40.138Z,13.47
2019-01-17T03:06:15.034Z,11.83
2019-01-17T03:08:48.297Z,13.68
2019-01-17T03:11:24.252Z,13.48
2019-01-17T03:13:57.869Z,12.87
2019-01-17T03:16:31.157Z,13.43
2019-01-17T03:19:04.612Z,13.93
2019-01-17T03:21:38.421Z,13.03
2019-01-17T03:24:11.497Z,14.17
2019-01-17T03:26:44.906Z,14.77
2019-01-17T03:29:17.649Z,16.90
2019-01-17T03:31:51.514Z,14.70
2019-01-17T03:34:25.195Z,15.80
2019-01-17T03:36:58.817Z,17.70
2019-01-17T03:39:32.877Z,16.00
2019-01-17T03:42:07.037Z,16.63
2019-01-17T03:44:39.796Z,15.93
2019-01-17T03:47:13.076Z,16.67
2019-01-17T03:49:45.819Z,17.90
2019-01-17T03:52:18.746Z,18.07
2019-01-17T03:54:53.995Z,16.37
2019-01-17T03:57:27.076Z,18.75
2019-01-17T03:59:59.896Z,17.57
2019-01-17T04:02:33.237Z,17.90
2019-01-17T04:05:07.491Z,18.67
2019-01-17T04:07:40.360Z,18.67
2019-01-17T04:10:15.152Z,20.03
2019-01-17T04:12:47.974Z,21.70
2019-01-17T04:15:20.782Z,20.62
2019-01-17T04:17:54.703Z,19.83
2019-01-17T04:20:27.522Z,21.60
2019-01-17T04:23:00.296Z,21.50
2019-01-17T04:25:33.495Z,23.13
2019-01-17T04:28:06.281Z,23.67
2019-01-17T04:30:39.952Z,25.40
2019-01-17T04:33:13.293Z,23.17
2019-01-17T04:35:46.363Z,24.30
2019-01-17T04:38:19.823Z,22.60
2019-01-17T04:40:53.047Z,24.90
2019-01-17T04:43:27.136Z,25.20
2019-01-17T04:45:59.902Z,27.23
2019-01-17T04:48:34.060Z,23.50
2019-01-17T04:51:07.122Z,24.60
2019-01-17T04:53:46.234Z,31.60
2019-01-17T04:56:19.422Z,27.02
2019-01-17T04:58:52.483Z,27.00
2019-01-17T05:01:25.646Z,25.93
2019-01-17T05:03:58.645Z,26.60
2019-01-17T05:06:31.663Z,25.00
2019-01-17T05:09:07.733Z,28.17
2019-01-17T05:11:40.659Z,29.20
2019-01-17T05:14:13.690Z,31.77
2019-01-17T05:16:46.615Z,29.60
2019-01-17T05:19:19.688Z,32.47
2019-01-17T05:21:52.781Z,29.73
2019-01-17T05:24:27.308Z,33.03
2019-01-17T05:27:01.553Z,35.73
2019-01-17T05:29:36.512Z,36.23
2019-01-17T05:32:09.857Z,32.77
2019-01-17T05:34:42.967Z,30.50
2019-01-17T05:37:16.396Z,29.27
2019-01-17T05:39:49.327Z,29.97
2019-01-17T05:42:22.624Z,27.97
2019-01-17T05:44:56.247Z,30.10
2019-01-17T05:47:29.137Z,25.77
2019-01-17T05:50:03.195Z,33.27
2019-01-17T05:52:36.716Z,28.13
2019-01-17T05:55:10.265Z,27.33
2019-01-17T05:57:43.433Z,28.12
2019-01-17T06:00:20.839Z,29.90
2019-01-17T06:02:53.766Z,28.40
2019-01-17T06:05:27.101Z,28.73
2019-01-17T06:08:01.752Z,30.17
2019-01-17T06:10:34.824Z,27.07
2019-01-17T06:13:08.300Z,28.37
2019-01-17T06:15:44.249Z,28.87
2019-01-17T06:18:17.461Z,26.30
2019-01-17T06:20:50.457Z,27.30
2019-01-17T06:23:23.901Z,30.07
2019-01-17T06:25:56.820Z,29.63
2019-01-17T06:28:29.659Z,29.10
2019-01-17T06:31:04.517Z,32.33
2019-01-17T06:33:38.413Z,29.03
2019-01-17T06:36:12.244Z,30.50
2019-01-17T06:38:45.257Z,34.50
2019-01-17T06:41:19.274Z,35.80
2019-01-17T06:43:55.702Z,35.40
2019-01-17T06:46:28.801Z,32.80
2019-01-17T06:49:03.725Z,30.35
2019-01-17T06:51:36.718Z,31.77
2019-01-17T06:54:09.690Z,30.97
2019-01-17T06:56:42.759Z,27.13
2019-01-17T06:59:16.096Z,28.37
2019-01-17T07:01:49.580Z,27.37
2019-01-17T07:04:22.469Z,26.43
2019-01-17T07:06:55.504Z,23.97
2019-01-17T07:09:29.468Z,26.17
2019-01-17T07:12:03.222Z,26.90
2019-01-17T07:14:36.077Z,26.87
2019-01-17T07:17:09.049Z,26.67
2019-01-17T07:19:42.435Z,25.90
2019-01-17T07:22:15.521Z,28.60
2019-01-17T07:24:49.454Z,23.93
2019-01-17T07:27:23.785Z,24.77
2019-01-17T07:29:56.702Z,25.30
2019-01-17T07:32:29.663Z,25.07
2019-01-17T07:35:03.681Z,27.00
2019-01-17T07:37:37.716Z,22.80
2019-01-17T07:40:12.080Z,25.07
2019-01-17T07:42:45.209Z,24.70
2019-01-17T07:45:47.530Z,21.30
2019-01-17T07:48:22.237Z,21.13
2019-01-17T07:50:56.158Z,19.35
2019-01-17T07:53:29.248Z,19.53
2019-01-17T07:56:05.912Z,19.47
2019-01-17T07:58:40.359Z,20.73
2019-01-17T08:01:15.080Z,19.80
2019-01-17T08:03:49.422Z,21.20
2019-01-17T08:06:22.364Z,21.67
2019-01-17T08:08:56.072Z,21.90
2019-01-17T08:11:30.179Z,19.77
2019-01-17T08:14:03.848Z,19.20
2019-01-17T08:16:38.654Z,22.33
2019-01-17T08:19:13.201Z,23.73
2019-01-17T08:21:47.620Z,22.07
2019-01-17T08:24:23.071Z,20.27
2019-01-17T08:26:56.013Z,22.93
2019-01-17T08:29:29.058Z,19.93
2019-01-17T08:32:03.375Z,19.27
2019-01-17T08:34:36.518Z,21.60
2019-01-17T08:37:09.649Z,17.97
2019-01-17T08:39:43.582Z,19.97
2019-01-17T08:42:20.771Z,17.97
2019-01-17T08:44:55.683Z,17.62
2019-01-17T08:47:29.919Z,15.97
2019-01-17T08:50:03.776Z,15.18
2019-01-17T08:52:37.731Z,14.77
2019-01-17T08:55:13.976Z,15.90
2019-01-17T08:57:47.837Z,13.80
2019-01-17T09:00:24.149Z,16.03
2019-01-17T09:02:59.160Z,13.00
2019-01-17T09:05:33.902Z,12.93
2019-01-17T09:08:12.811Z,10.60
2019-01-17T09:10:47.131Z,9.87
2019-01-17T09:13:20.764Z,14.87
2019-01-17T09:15:55.876Z,13.67
2019-01-17T09:18:30.098Z,10.83
2019-01-17T09:21:03.422Z,8.83
2019-01-17T09:23:38.389Z,9.73
2019-01-17T09:26:13.247Z,9.43
2019-01-17T09:28:46.891Z,10.80
2019-01-17T09:31:20.478Z,6.73
2019-01-17T09:33:55.898Z,6.97
2019-01-17T09:36:29.794Z,6.73
2019-01-17T09:39:08.558Z,10.75
2019-01-17T09:41:43.555Z,8.03
2019-01-17T09:44:16.707Z,7.00
2019-01-17T09:46:52.057Z,9.93
2019-01-17T09:49:29.208Z,13.00
2019-01-17T09:52:05.108Z,8.02
2019-01-17T09:54:40.484Z,8.87
2019-01-17T09:57:14.526Z,9.30
2019-01-17T09:59:50.428Z,11.50
2019-01-17T10:02:24.081Z,6.90
2019-01-17T10:05:00.489Z,8.82
2019-01-17T10:07:34.844Z,8.10
2019-01-17T10:10:15.825Z,9.80
2019-01-17T10:12:50.525Z,9.57
2019-01-17T10:16:03.283Z,9.13
2019-01-17T10:19:05.527Z,6.83
2019-01-17T10:22:33.282Z,6.33
2019-01-17T10:25:57.256Z,9.23
2019-01-17T10:29:10.557Z,7.10
2019-01-17T10:32:25.953Z,5.30
2019-01-17T10:35:55.675Z,7.63
2019-01-17T10:38:47.434Z,8.10
2019-01-17T10:41:58.742Z,8.47
2019-01-17T10:45:12.729Z,8.53
2019-01-17T10:48:41.588Z,7.13
2019-01-17T10:52:26.087Z,7.00
2019-01-17T10:56:02.960Z,7.53
2019-01-17T10:59:16.391Z,8.30
2019-01-17T11:02:33.453Z,8.33
2019-01-17T11:05:49.947Z,3.07
2019-01-17T11:09:29.032Z,3.17
2019-01-17T11:12:26.321Z,2.60
2019-01-17T11:16:06.604Z,3.33
2019-01-17T11:19:08.071Z,3.27
2019-01-17T11:22:21.468Z,3.78
2019-01-17T11:25:35.530Z,3.35
2019-01-17T11:29:03.127Z,3.20
2019-01-17T11:32:15.725Z,4.97
2019-01-17T11:35:23.046Z,3.28
2019-01-17T11:38:33.789Z,2.50
2019-01-17T11:42:23.371Z,3.80
2019-01-17T11:45:42.395Z,3.30
2019-01-17T11:49:00.071Z,4.20
2019-01-17T11:52:44.100Z,3.92
2019-01-17T11:55:44.114Z,4.50
2019-01-17T11:59:12.710Z,4.17
2019-01-17T12:02:24.240Z,5.50
2019-01-17T12:04:57.315Z,4.77
2019-01-17T12:07:30.971Z,6.03
2019-01-17T12:10:09.524Z,5.97
2019-01-17T12:12:44.825Z,5.87
2019-01-17T12:15:19.012Z,6.22
2019-01-17T12:17:52.507Z,6.33
2019-01-17T12:20:26.786Z,6.90
2019-01-17T12:22:59.812Z,6.63
2019-01-17T12:25:33.978Z,5.07
2019-01-17T12:28:11.501Z,4.53
2019-01-17T12:30:48.790Z,4.20
2019-01-17T12:33:24.551Z,4.90
2019-01-17T12:36:00.321Z,3.83
2019-01-17T12:38:33.501Z,3.90
2019-01-17T12:41:08.644Z,3.73
2019-01-17T12:43:43.932Z,3.83
2019-01-17T12:46:18.513Z,3.70
2019-01-17T12:48:51.445Z,3.73
2019-01-17T12:51:27.085Z,3.70
2019-01-17T12:54:01.144Z,3.20
2019-01-17T12:56:36.434Z,3.53
2019-01-17T12:59:09.914Z,2.70
2019-01-17T13:01:44.108Z,2.50
2019-01-17T13:04:17.470Z,2.80
2019-01-17T13:06:56.825Z,3.40
2019-01-17T13:09:37.448Z,4.97
2019-01-17T13:12:11.909Z,4.13
2019-01-17T13:14:44.911Z,5.10
2019-01-17T13:17:19.058Z,4.20
2019-01-17T13:19:54.475Z,4.87
2019-01-17T13:22:27.705Z,6.20
2019-01-17T13:25:00.989Z,4.65
2019-01-17T13:27:36.552Z,6.63
2019-01-17T13:30:17.555Z,5.30
2019-01-17T13:32:50.823Z,7.13
2019-01-17T13:35:25.214Z,6.70
2019-01-17T13:37:58.953Z,7.90
2019-01-17T13:40:31.956Z,5.27
2019-01-17T13:43:06.571Z,5.83
2019-01-17T13:45:39.585Z,5.67
2019-01-17T13:48:12.745Z,5.60
2019-01-17T13:50:48.643Z,4.87
2019-01-17T13:53:22.761Z,4.87
2019-01-17T13:55:56.659Z,5.00
2019-01-17T13:58:34.579Z,4.50
2019-01-17T14:01:08.703Z,4.87
2019-01-17T14:03:43.231Z,4.70
2019-01-17T14:06:19.159Z,5.40
2019-01-17T14:08:52.592Z,5.13
2019-01-17T14:11:29.195Z,6.67
2019-01-17T14:14:03.762Z,7.10
2019-01-17T14:16:39.164Z,7.80
2019-01-17T14:19:22.879Z,9.73
2019-01-17T14:21:57.637Z,9.57
2019-01-17T14:24:45.298Z,8.90
2019-01-17T14:27:25.320Z,8.60
2019-01-17T14:29:58.993Z,7.60
2019-01-17T14:32:32.177Z,7.23
2019-01-17T14:35:06.645Z,8.47
2019-01-17T14:37:40.301Z,5.53
2019-01-17T14:40:14.525Z,5.10
2019-01-17T14:42:48.261Z,5.93
2019-01-17T14:45:23.501Z,7.80
2019-01-17T14:47:59.410Z,4.37
2019-01-17T14:50:34.481Z,4.00
2019-01-17T14:53:07.704Z,4.60
2019-01-17T14:55:43.345Z,3.60
2019-01-17T14:58:18.387Z,4.23
2019-01-17T15:00:53.273Z,3.10
2019-01-17T15:03:28.112Z,5.83
2019-01-17T15:06:06.641Z,4.10
2019-01-17T15:08:42.313Z,4.63
2019-01-17T15:11:17.497Z,4.70
2019-01-17T15:13:54.226Z,4.70
2019-01-17T15:16:31.277Z,6.27
2019-01-17T15:19:08.525Z,7.90
2019-01-17T15:21:41.621Z,5.20
2019-01-17T15:24:15.543Z,3.72
2019-01-17T15:26:50.132Z,6.90
2019-01-17T15:29:25.020Z,3.40
2019-01-17T15:32:02.446Z,7.87
2019-01-17T15:34:36.408Z,7.53
2019-01-17T15:37:10.493Z,8.27
2019-01-17T15:39:44.035Z,9.53
2019-01-17T15:42:17.629Z,7.53
2019-01-17T15:44:55.061Z,7.53
2019-01-17T15:47:32.560Z,10.47
2019-01-17T15:50:11.478Z,12.67
2019-01-17T15:52:45.414Z,9.77
2019-01-17T15:55:20.748Z,12.57
2019-01-17T15:57:54.765Z,9.33
2019-01-17T16:00:35.465Z,10.60
2019-01-17T16:03:13.741Z,9.13
2019-01-17T16:05:51.266Z,8.90
2019-01-17T16:08:25.235Z,7.80
2019-01-17T16:11:00.014Z,5.20
2019-01-17T16:13:34.271Z,7.73
2019-01-17T16:16:11.396Z,9.23
2019-01-17T16:18:48.545Z,10.90
2019-01-17T16:21:25.915Z,10.57
2019-01-17T16:24:00.693Z,10.63
2019-01-17T16:26:35.825Z,10.03
2019-01-17T16:29:12.766Z,13.50
2019-01-17T16:31:47.773Z,13.18
2019-01-17T16:34:22.779Z,12.73
2019-01-17T16:37:04.923Z,12.13
2019-01-17T16:39:40.710Z,12.60
2019-01-17T16:42:14.953Z,11.03
2019-01-17T16:44:48.205Z,9.83
2019-01-17T16:47:22.180Z,12.43
2019-01-17T16:49:56.236Z,15.30
2019-01-17T16:52:29.989Z,13.13
2019-01-17T16:55:05.957Z,14.70
2019-01-17T16:57:49.124Z,20.20
2019-01-17T17:00:41.851Z,13.90
2019-01-17T17:03:15.713Z,14.40
2019-01-17T17:05:51.712Z,14.43
2019-01-17T17:08:26.674Z,10.32
2019-01-17T17:11:00.078Z,10.00
2019-01-17T17:13:33.803Z,10.77
2019-01-17T17:16:10.919Z,9.87
2019-01-17T17:18:45.300Z,11.20
2019-01-17T17:21:21.042Z,9.97
2019-01-17T17:23:54.663Z,7.53
2019-01-17T17:26:28.930Z,9.63
2019-01-17T17:29:05.805Z,10.63
2019-01-17T17:31:43.944Z,8.65
2019-01-17T17:34:18.953Z,12.37
2019-01-17T17:36:53.253Z,9.87
2019-01-17T17:39:27.939Z,10.53
2019-01-17T17:42:10.813Z,17.12
2019-01-17T17:44:47.204Z,12.60
2019-01-17T17:47:20.633Z,17.33
2019-01-17T17:49:56.406Z,19.67
2019-01-17T17:52:31.397Z,15.70
2019-01-17T17:55:12.391Z,16.73
2019-01-17T17:57:46.990Z,15.63
2019-01-17T18:00:40.689Z,11.63
2019-01-17T18:03:17.646Z,13.10
2019-01-17T18:05:51.109Z,15.13
2019-01-17T18:08:26.552Z,16.80
2019-01-17T18:11:02.159Z,15.80
2019-01-17T18:13:36.319Z,19.63
2019-01-17T18:16:10.055Z,12.37
2019-01-17T18:18:43.546Z,8.47
2019-01-17T18:21:20.733Z,8.07
2019-01-17T18:23:54.968Z,9.63
2019-01-17T18:26:29.964Z,7.67
2019-01-17T18:29:10.001Z,8.67
2019-01-17T18:31:43.714Z,7.37
2019-01-17T18:34:19.191Z,9.23
2019-01-17T18:36:56.446Z,7.73
2019-01-17T18:39:29.922Z,6.97
2019-01-17T18:42:05.573Z,5.70
2019-01-17T18:44:39.242Z,6.73
2019-01-17T18:47:15.782Z,6.00
2019-01-17T18:49:52.812Z,6.20
2019-01-17T18:52:32.484Z,6.93
2019-01-17T18:55:08.102Z,8.25
2019-01-17T18:57:42.893Z,7.53
2019-01-17T19:00:24.518Z,8.93
2019-01-17T19:03:01.325Z,9.20
2019-01-17T19:05:39.881Z,10.35
2019-01-17T19:08:15.980Z,12.13
2019-01-17T19:10:50.177Z,12.33
2019-01-17T19:13:25.207Z,11.97
2019-01-17T19:15:58.263Z,13.00
2019-01-17T19:18:32.142Z,13.17
2019-01-17T19:21:08.860Z,14.67
2019-01-17T19:23:45.274Z,15.77
2019-01-17T19:26:22.074Z,20.10
2019-01-17T19:28:55.824Z,16.63
2019-01-17T19:31:31.561Z,16.50
2019-01-17T19:34:09.830Z,17.63
2019-01-17T19:36:44.082Z,18.90
2019-01-17T19:39:21.080Z,17.67
2019-01-17T19:41:54.951Z,17.87
2019-01-17T19:44:31.403Z,18.53
2019-01-17T19:47:11.367Z,20.87
2019-01-17T19:49:51.398Z,20.27
2019-01-17T19:52:27.718Z,20.33
2019-01-17T19:55:03.180Z,22.80
2019-01-17T19:57:40.527Z,21.75
2019-01-17T20:00:22.763Z,19.87
2019-01-17T20:02:56.425Z,21.15
2019-01-17T20:05:32.078Z,23.37
2019-01-17T20:08:07.892Z,20.23
2019-01-17T20:10:43.586Z,20.83
2019-01-17T20:13:18.306Z,22.03
2019-01-17T20:16:10.825Z,22.37
2019-01-17T20:18:45.961Z,21.23
2019-01-17T20:21:21.738Z,23.30
2019-01-17T20:23:58.095Z,20.77
2019-01-17T20:26:32.840Z,19.73
2019-01-17T20:29:10.766Z,20.67
2019-01-17T20:31:52.582Z,26.03
2019-01-17T20:34:28.621Z,24.53
2019-01-17T20:37:05.574Z,22.00
2019-01-17T20:39:44.599Z,24.03
2019-01-17T20:42:20.131Z,23.27
2019-01-17T20:45:10.204Z,22.50
2019-01-17T20:47:46.120Z,18.70
2019-01-17T20:50:25.749Z,20.30
2019-01-17T20:53:00.325Z,22.40
2019-01-17T20:55:34.616Z,19.07
2019-01-17T20:58:08.948Z,21.37
2019-01-17T21:01:04.421Z,22.37
2019-01-17T21:03:39.431Z,21.73
2019-01-17T21:06:20.991Z,24.48
2019-01-17T21:08:54.996Z,20.83
2019-01-17T21:11:37.311Z,24.03
2019-01-17T21:14:13.120Z,23.03
2019-01-17T21:16:46.620Z,21.77
2019-01-17T21:19:22.090Z,22.15
2019-01-17T21:21:59.804Z,22.47
2019-01-17T21:24:36.200Z,19.77
2019-01-17T21:27:15.360Z,23.15
2019-01-17T21:29:52.183Z,25.47
2019-01-17T21:32:26.766Z,26.23
2019-01-17T21:35:02.170Z,26.00
2019-01-17T21:37:36.371Z,26.60
2019-01-17T21:40:17.651Z,27.48
2019-01-17T21:42:51.773Z,28.73
2019-01-17T21:45:25.802Z,26.10
2019-01-17T21:48:00.393Z,26.93
2019-01-17T21:50:34.224Z,24.30
2019-01-17T21:53:09.846Z,26.67
2019-01-17T21:55:48.032Z,28.87
2019-01-17T21:58:25.825Z,26.87
2019-01-17T22:00:59.872Z,24.87
2019-01-17T22:03:34.536Z,24.03
2019-01-17T22:06:08.140Z,27.80
2019-01-17T22:08:43.754Z,22.83
2019-01-17T22:11:20.241Z,25.30
2019-01-17T22:13:55.089Z,20.43
2019-01-17T22:16:31.075Z,22.67
2019-01-17T22:19:08.185Z,20.02
2019-01-17T22:21:42.053Z,18.50
2019-01-17T22:24:18.544Z,17.40
2019-01-17T22:26:52.540Z,16.90
2019-01-17T22:29:27.492Z,18.60
2019-01-17T22:32:00.881Z,18.07
2019-01-17T22:34:39.336Z,18.53
2019-01-17T22:37:12.364Z,18.23
2019-01-17T22:39:47.743Z,17.87
2019-01-17T22:42:22.344Z,21.33
2019-01-17T22:44:56.261Z,23.43
2019-01-17T22:47:29.856Z,22.47
2019-01-17T22:50:03.156Z,20.47
2019-01-17T22:52:36.230Z,21.23
2019-01-17T22:55:09.907Z,22.97
2019-01-17T22:57:43.084Z,25.17
2019-01-17T23:00:48.263Z,19.33
2019-01-17T23:03:36.336Z,21.70
2019-01-17T23:06:09.273Z,20.27
2019-01-17T23:08:42.647Z,20.73
2019-01-17T23:11:15.911Z,21.23
2019-01-17T23:13:52.283Z,20.10
2019-01-17T23:16:26.533Z,20.30
2019-01-17T23:19:01.304Z,23.73
2019-01-17T23:21:35.509Z,22.67
2019-01-17T23:24:10.193Z,20.17
2019-01-17T23:26:43.291Z,21.65
2019-01-17T23:29:16.700Z,21.87
2019-01-17T23:31:50.391Z,24.03
2019-01-17T23:34:23.407Z,21.83
2019-01-17T23:36:56.918Z,21.37
2019-01-17T23:39:30.063Z,23.70
2019-01-17T23:42:03.331Z,22.63
2019-01-17T23:44:36.798Z,24.77
2019-01-17T23:47:15.567Z,21.87
2019-01-17T23:49:49.506Z,23.80
2019-01-17T23:52:24.617Z,22.90
2019-01-17T23:54:57.617Z,21.33
2019-01-17T23:57:30.950Z,20.23
